createdAt,value
2018-07-17T00:01:46.772Z,3.37
2018-07-17T00:04:15.962Z,5.70
2018-07-17T00:06:45.016Z,4.53
2018-07-17T00:09:13.970Z,3.80
2018-07-17T00:11:43.002Z,3.70
2018-07-17T00:14:12.159Z,3.80
2018-07-17T00:16:41.312Z,3.43
2018-07-17T00:19:10.472Z,3.33
2018-07-17T00:21:39.669Z,3.57
2018-07-17T00:24:08.927Z,4.67
2018-07-17T00:26:38.066Z,5.47
2018-07-17T00:29:07.206Z,5.80
2018-07-17T00:31:36.583Z,7.03
2018-07-17T00:34:05.948Z,8.37
2018-07-17T00:36:35.005Z,9.80
2018-07-17T00:39:05.064Z,6.40
2018-07-17T00:41:34.174Z,5.43
2018-07-17T00:44:03.336Z,4.17
2018-07-17T00:46:32.543Z,3.73
2018-07-17T00:49:01.811Z,3.47
2018-07-17T00:51:31.027Z,4.87
2018-07-17T00:54:00.158Z,4.03
2018-07-17T00:56:29.384Z,4.40
2018-07-17T00:58:58.562Z,4.83
2018-07-17T01:01:33.148Z,4.70
2018-07-17T01:04:07.733Z,4.60
2018-07-17T01:06:42.908Z,4.93
2018-07-17T01:09:17.656Z,4.63
2018-07-17T01:11:52.619Z,5.73
2018-07-17T01:14:30.065Z,5.47
2018-07-17T01:16:59.578Z,6.13
2018-07-17T01:19:28.665Z,5.63
2018-07-17T01:21:58.550Z,7.23
2018-07-17T01:24:39.389Z,6.83
2018-07-17T01:27:09.505Z,5.60
2018-07-17T01:29:39.378Z,5.87
2018-07-17T01:32:09.393Z,4.20
2018-07-17T01:34:39.440Z,3.97
2018-07-17T01:37:09.410Z,4.10
2018-07-17T01:39:39.447Z,3.77
2018-07-17T01:42:09.433Z,4.00
2018-07-17T01:44:39.985Z,4.17
2018-07-17T01:47:09.610Z,4.37
2018-07-17T01:49:39.073Z,4.20
2018-07-17T01:52:08.366Z,4.37
2018-07-17T01:54:38.354Z,3.73
2018-07-17T01:57:08.123Z,4.30
2018-07-17T01:59:37.682Z,5.17
2018-07-17T02:02:07.291Z,5.13
2018-07-17T02:04:37.195Z,4.37
2018-07-17T02:07:06.632Z,5.13
2018-07-17T02:09:36.612Z,4.47
2018-07-17T02:12:06.499Z,4.87
2018-07-17T02:14:35.569Z,4.50
2018-07-17T02:17:04.963Z,4.53
2018-07-17T02:19:34.127Z,5.00
2018-07-17T02:22:03.148Z,4.40
2018-07-17T02:24:31.929Z,6.37
2018-07-17T02:27:00.892Z,5.80
2018-07-17T02:29:30.041Z,5.97
2018-07-17T02:31:59.091Z,5.10
2018-07-17T02:34:28.297Z,5.20
2018-07-17T02:36:57.419Z,5.40
2018-07-17T02:39:26.523Z,5.10
2018-07-17T02:41:55.611Z,5.27
2018-07-17T02:44:24.774Z,4.70
2018-07-17T02:46:53.639Z,5.53
2018-07-17T02:49:22.785Z,5.33
2018-07-17T02:51:52.091Z,5.23
2018-07-17T02:54:21.428Z,5.80
2018-07-17T02:56:50.497Z,12.47
2018-07-17T02:59:20.230Z,13.53
2018-07-17T03:01:49.480Z,15.03
2018-07-17T03:04:18.739Z,24.87
2018-07-17T03:06:47.784Z,21.53
2018-07-17T03:09:16.972Z,22.43
2018-07-17T03:11:46.237Z,23.70
2018-07-17T03:14:15.445Z,20.63
2018-07-17T03:16:44.594Z,13.53
2018-07-17T03:19:13.424Z,10.47
2018-07-17T03:21:42.371Z,9.53
2018-07-17T03:24:11.516Z,7.60
2018-07-17T03:26:40.351Z,7.77
2018-07-17T03:29:09.364Z,7.17
2018-07-17T03:31:38.248Z,6.07
2018-07-17T03:34:07.408Z,5.70
2018-07-17T03:36:36.753Z,6.13
2018-07-17T03:39:07.682Z,7.73
2018-07-17T03:41:36.970Z,5.37
2018-07-17T03:44:06.162Z,7.03
2018-07-17T03:46:35.289Z,6.20
2018-07-17T03:49:04.428Z,6.63
2018-07-17T03:51:33.776Z,5.77
2018-07-17T03:54:02.652Z,5.97
2018-07-17T03:56:31.684Z,5.70
2018-07-17T03:59:00.886Z,5.43
2018-07-17T04:01:29.784Z,4.57
2018-07-17T04:03:58.903Z,4.50
2018-07-17T04:06:28.262Z,5.77
2018-07-17T04:08:57.685Z,5.53
2018-07-17T04:11:26.901Z,6.43
2018-07-17T04:13:56.207Z,5.87
2018-07-17T04:16:25.601Z,5.80
2018-07-17T04:18:54.780Z,5.43
2018-07-17T04:21:24.007Z,6.67
2018-07-17T04:23:53.393Z,5.37
2018-07-17T04:26:22.748Z,7.57
2018-07-17T04:28:52.028Z,5.00
2018-07-17T04:31:21.340Z,4.50
2018-07-17T04:33:50.250Z,6.10
2018-07-17T04:36:19.338Z,5.27
2018-07-17T04:38:48.475Z,5.40
2018-07-17T04:41:17.690Z,4.90
2018-07-17T04:43:49.366Z,5.80
2018-07-17T04:46:18.453Z,5.50
2018-07-17T04:48:47.512Z,5.37
2018-07-17T04:51:16.642Z,4.90
2018-07-17T04:55:15.053Z,5.00
2018-07-17T04:57:44.358Z,4.50
2018-07-17T05:00:13.493Z,5.00
2018-07-17T05:02:42.671Z,4.07
2018-07-17T05:05:12.065Z,4.23
2018-07-17T05:07:41.497Z,4.17
2018-07-17T05:10:10.798Z,4.43
2018-07-17T05:12:40.117Z,4.33
2018-07-17T05:15:09.447Z,4.63
2018-07-17T05:17:38.987Z,4.10
2018-07-17T05:20:08.278Z,4.47
2018-07-17T05:22:37.473Z,4.20
2018-07-17T05:25:06.724Z,6.73
2018-07-17T05:27:36.025Z,4.30
2018-07-17T05:30:05.570Z,5.37
2018-07-17T05:32:34.967Z,5.30
2018-07-17T05:35:04.406Z,4.20
2018-07-17T05:37:33.872Z,4.43
2018-07-17T05:40:03.434Z,4.72
2018-07-17T05:42:32.734Z,4.17
2018-07-17T05:45:02.195Z,4.55
2018-07-17T05:47:31.506Z,5.58
2018-07-17T05:50:00.669Z,5.25
2018-07-17T05:52:29.941Z,4.08
2018-07-17T05:54:59.125Z,4.62
2018-07-17T05:57:28.294Z,3.80
2018-07-17T05:59:57.419Z,4.00
2018-07-17T06:02:26.694Z,3.92
2018-07-17T06:04:55.767Z,4.85
2018-07-17T06:07:24.854Z,4.55
2018-07-17T06:09:54.117Z,3.87
2018-07-17T06:12:23.145Z,4.80
2018-07-17T06:14:52.651Z,4.15
2018-07-17T06:17:21.780Z,4.05
2018-07-17T06:19:50.794Z,3.50
2018-07-17T06:22:19.940Z,3.15
2018-07-17T06:24:49.102Z,3.25
2018-07-17T06:27:18.260Z,3.02
2018-07-17T06:29:47.416Z,3.83
2018-07-17T06:32:16.447Z,5.30
2018-07-17T06:34:45.399Z,4.60
2018-07-17T06:37:14.477Z,3.87
2018-07-17T06:39:44.022Z,3.77
2018-07-17T06:42:13.093Z,4.12
2018-07-17T06:44:41.899Z,3.02
2018-07-17T06:47:10.748Z,2.55
2018-07-17T06:49:39.753Z,2.58
2018-07-17T06:52:08.980Z,3.02
2018-07-17T06:54:38.214Z,3.75
2018-07-17T06:57:07.411Z,2.62
2018-07-17T06:59:36.668Z,2.90
2018-07-17T07:02:05.902Z,2.95
2018-07-17T07:04:35.219Z,2.98
2018-07-17T07:07:04.593Z,3.00
2018-07-17T07:09:33.508Z,3.05
2018-07-17T07:12:02.543Z,3.05
2018-07-17T07:14:31.649Z,2.67
2018-07-17T07:17:00.885Z,2.98
2018-07-17T07:19:30.342Z,2.90
2018-07-17T07:21:59.713Z,3.60
2018-07-17T07:24:29.017Z,3.50
2018-07-17T07:26:58.201Z,3.47
2018-07-17T07:29:27.476Z,3.20
2018-07-17T07:31:56.738Z,4.50
2018-07-17T07:34:25.820Z,4.65
2018-07-17T07:36:55.283Z,2.72
2018-07-17T07:39:24.320Z,6.58
2018-07-17T07:41:53.404Z,3.72
2018-07-17T07:44:22.584Z,2.85
2018-07-17T07:46:51.817Z,3.10
2018-07-17T07:49:21.127Z,2.65
2018-07-17T07:51:50.463Z,3.12
2018-07-17T07:54:19.354Z,4.00
2018-07-17T07:56:48.421Z,3.55
2018-07-17T07:59:17.579Z,3.37
2018-07-17T08:01:46.766Z,4.80
2018-07-17T08:04:16.029Z,2.98
2018-07-17T08:06:45.368Z,4.10
2018-07-17T08:09:14.511Z,3.33
2018-07-17T08:11:43.880Z,2.98
2018-07-17T08:14:13.008Z,2.90
2018-07-17T08:16:42.316Z,2.98
2018-07-17T08:19:11.287Z,2.90
2018-07-17T08:21:40.317Z,3.00
2018-07-17T08:24:09.527Z,2.87
2018-07-17T08:26:38.791Z,4.42
2018-07-17T08:29:07.836Z,3.27
2018-07-17T08:31:37.185Z,3.15
2018-07-17T08:34:06.616Z,2.72
2018-07-17T08:36:35.613Z,2.58
2018-07-17T08:39:06.050Z,2.80
2018-07-17T08:41:35.241Z,3.65
2018-07-17T08:44:04.368Z,2.98
2018-07-17T08:46:33.492Z,2.95
2018-07-17T08:49:02.782Z,4.35
2018-07-17T08:51:32.071Z,2.87
2018-07-17T08:54:01.258Z,4.05
2018-07-17T08:56:30.428Z,3.00
2018-07-17T08:58:59.740Z,3.25
2018-07-17T09:01:29.007Z,3.72
2018-07-17T09:03:58.361Z,4.58
2018-07-17T09:06:27.750Z,3.15
2018-07-17T09:08:56.928Z,4.47
2018-07-17T09:11:26.088Z,4.72
2018-07-17T09:13:55.242Z,3.33
2018-07-17T09:16:24.512Z,2.80
2018-07-17T09:18:53.756Z,2.58
2018-07-17T09:21:23.047Z,3.30
2018-07-17T09:23:51.916Z,5.78
2018-07-17T09:26:20.859Z,3.08
2018-07-17T09:28:50.133Z,2.80
2018-07-17T09:31:19.375Z,3.33
2018-07-17T09:33:48.626Z,3.35
2018-07-17T09:36:17.718Z,4.25
2018-07-17T09:38:47.051Z,3.62
2018-07-17T09:41:16.322Z,6.12
2018-07-17T09:43:45.583Z,3.27
2018-07-17T09:46:14.924Z,2.90
2018-07-17T09:48:44.222Z,2.65
2018-07-17T09:51:13.429Z,2.75
2018-07-17T09:53:42.606Z,5.08
2018-07-17T09:56:11.811Z,4.78
2018-07-17T09:58:41.196Z,2.02
2018-07-17T10:01:15.863Z,2.65
2018-07-17T10:03:45.363Z,2.30
2018-07-17T10:06:14.700Z,2.58
2018-07-17T10:08:44.026Z,2.05
2018-07-17T10:11:13.342Z,2.40
2018-07-17T10:13:42.603Z,2.27
2018-07-17T10:16:11.747Z,3.80
2018-07-17T10:18:41.796Z,2.35
2018-07-17T10:21:11.367Z,2.55
2018-07-17T10:23:40.690Z,2.00
2018-07-17T10:26:10.204Z,3.40
2018-07-17T10:28:39.169Z,2.00
2018-07-17T10:31:08.313Z,2.65
2018-07-17T10:33:38.461Z,2.37
2018-07-17T10:36:07.973Z,2.30
2018-07-17T10:38:36.856Z,2.67
2018-07-17T10:41:06.044Z,2.20
2018-07-17T10:43:35.143Z,2.27
2018-07-17T10:46:04.326Z,2.70
2018-07-17T10:48:33.520Z,1.82
2018-07-17T10:51:02.955Z,2.72
2018-07-17T10:53:32.225Z,2.20
2018-07-17T10:56:01.549Z,3.27
2018-07-17T10:58:30.482Z,2.30
2018-07-17T11:00:59.521Z,2.17
2018-07-17T11:03:28.833Z,4.45
2018-07-17T11:05:58.020Z,2.55
2018-07-17T11:08:27.284Z,2.47
2018-07-17T11:10:56.447Z,4.08
2018-07-17T11:13:25.787Z,3.12
2018-07-17T11:15:54.971Z,2.10
2018-07-17T11:18:24.211Z,2.85
2018-07-17T11:20:53.419Z,2.92
2018-07-17T11:23:22.584Z,4.05
2018-07-17T11:25:51.795Z,4.15
2018-07-17T11:28:20.800Z,4.22
2018-07-17T11:30:49.809Z,2.20
2018-07-17T11:33:19.050Z,2.42
2018-07-17T11:35:48.059Z,2.50
2018-07-17T11:38:17.120Z,3.10
2018-07-17T11:40:46.319Z,2.77
2018-07-17T11:43:15.498Z,3.02
2018-07-17T11:45:44.757Z,3.05
2018-07-17T11:48:13.521Z,2.40
2018-07-17T11:50:42.720Z,3.15
2018-07-17T11:53:11.950Z,2.80
2018-07-17T11:55:40.979Z,2.95
2018-07-17T11:58:10.362Z,3.42
2018-07-17T12:00:39.123Z,2.60
2018-07-17T12:03:08.125Z,3.10
2018-07-17T12:05:37.406Z,2.47
2018-07-17T12:08:06.404Z,2.90
2018-07-17T12:10:36.269Z,2.92
2018-07-17T12:13:06.136Z,3.90
2018-07-17T12:15:35.384Z,3.30
2018-07-17T12:18:04.846Z,2.72
2018-07-17T12:20:33.896Z,3.20
2018-07-17T12:23:02.954Z,3.02
2018-07-17T12:25:32.250Z,2.92
2018-07-17T12:28:01.183Z,2.80
2018-07-17T12:30:30.236Z,3.08
2018-07-17T12:32:59.443Z,2.65
2018-07-17T12:35:28.549Z,2.83
2018-07-17T12:37:57.804Z,2.08
2018-07-17T12:40:27.006Z,2.30
2018-07-17T12:42:56.332Z,2.87
2018-07-17T12:45:25.522Z,2.55
2018-07-17T12:47:57.388Z,2.22
2018-07-17T12:50:26.656Z,2.40
2018-07-17T12:52:55.806Z,1.90
2018-07-17T12:55:24.857Z,3.55
2018-07-17T12:57:54.344Z,2.20
2018-07-17T13:00:23.579Z,2.42
2018-07-17T13:02:52.795Z,2.92
2018-07-17T13:05:21.949Z,2.70
2018-07-17T13:07:50.953Z,2.77
2018-07-17T13:10:19.785Z,5.22
2018-07-17T13:12:48.959Z,4.28
2018-07-17T13:15:18.224Z,11.08
2018-07-17T13:17:47.435Z,2.25
2018-07-17T13:20:16.411Z,9.03
2018-07-17T13:22:45.478Z,2.80
2018-07-17T13:25:14.567Z,2.95
2018-07-17T13:27:43.812Z,3.25
2018-07-17T13:30:13.141Z,2.77
2018-07-17T13:32:42.280Z,4.08
2018-07-17T13:35:11.230Z,3.67
2018-07-17T13:37:40.389Z,6.30
2018-07-17T13:40:09.749Z,3.37
2018-07-17T13:42:38.956Z,3.75
2018-07-17T13:45:08.451Z,3.10
2018-07-17T13:47:37.669Z,4.58
2018-07-17T13:50:06.932Z,3.12
2018-07-17T13:52:36.138Z,4.03
2018-07-17T13:55:05.361Z,3.22
2018-07-17T13:57:34.398Z,3.25
2018-07-17T14:00:04.367Z,3.20
2018-07-17T14:02:33.491Z,3.02
2018-07-17T14:05:02.837Z,4.05
2018-07-17T14:07:31.993Z,3.00
2018-07-17T14:10:01.237Z,2.87
2018-07-17T14:12:30.691Z,3.35
2018-07-17T14:14:59.662Z,3.52
2018-07-17T14:17:28.658Z,3.27
2018-07-17T14:19:57.788Z,2.45
2018-07-17T14:22:26.981Z,3.50
2018-07-17T14:24:56.245Z,4.47
2018-07-17T14:27:25.390Z,4.28
2018-07-17T14:29:54.650Z,2.55
2018-07-17T14:32:23.829Z,3.08
2018-07-17T14:34:53.014Z,3.00
2018-07-17T14:37:22.230Z,3.08
2018-07-17T14:39:51.253Z,3.12
2018-07-17T14:42:20.960Z,3.62
2018-07-17T14:44:50.091Z,3.45
2018-07-17T14:47:19.208Z,2.75
2018-07-17T14:49:48.550Z,2.10
2018-07-17T14:52:17.900Z,4.05
2018-07-17T14:54:47.107Z,2.90
2018-07-17T14:57:16.251Z,3.12
2018-07-17T14:59:45.306Z,2.40
2018-07-17T15:02:14.374Z,2.90
2018-07-17T15:04:43.674Z,2.40
2018-07-17T15:07:12.871Z,2.83
2018-07-17T15:09:42.010Z,2.95
2018-07-17T15:12:11.380Z,2.80
2018-07-17T15:14:40.503Z,3.62
2018-07-17T15:17:09.763Z,3.20
2018-07-17T15:19:38.794Z,2.65
2018-07-17T15:22:07.912Z,2.98
2018-07-17T15:24:37.047Z,3.12
2018-07-17T15:27:06.195Z,2.98
2018-07-17T15:29:35.368Z,3.27
2018-07-17T15:32:04.699Z,3.45
2018-07-17T15:34:33.555Z,3.30
2018-07-17T16:59:01.547Z,3.35
2018-07-17T17:01:31.049Z,2.67
2018-07-17T17:04:00.733Z,2.17
2018-07-17T17:06:30.819Z,2.27
2018-07-17T17:09:01.192Z,2.02
2018-07-17T17:11:31.528Z,1.87
2018-07-17T17:14:01.734Z,2.30
2018-07-17T17:16:31.850Z,2.45
2018-07-17T17:19:02.498Z,2.08
2018-07-17T17:21:31.826Z,1.77
2018-07-17T17:24:01.779Z,2.10
2018-07-17T17:26:31.455Z,2.30
2018-07-17T17:29:01.006Z,2.05
2018-07-17T17:31:30.912Z,2.17
2018-07-17T17:34:01.268Z,2.15
2018-07-17T17:36:31.574Z,2.25
2018-07-17T17:39:01.487Z,2.33
2018-07-17T17:41:31.488Z,2.40
2018-07-17T17:44:01.857Z,2.20
2018-07-17T17:46:31.636Z,2.42
2018-07-17T17:49:00.965Z,3.10
2018-07-17T17:51:30.067Z,2.45
2018-07-17T17:53:59.907Z,2.20
2018-07-17T17:56:29.455Z,2.47
2018-07-17T17:58:59.069Z,2.25
2018-07-17T18:01:29.082Z,2.72
2018-07-17T18:03:59.095Z,2.30
2018-07-17T18:06:29.005Z,2.27
2018-07-17T18:08:59.081Z,2.67
2018-07-17T18:11:28.659Z,2.62
2018-07-17T18:13:58.150Z,3.80
2018-07-17T18:16:27.539Z,2.60
2018-07-17T18:18:56.851Z,2.20
2018-07-17T18:21:26.074Z,2.75
2018-07-17T18:23:55.828Z,2.75
2018-07-17T18:26:25.141Z,2.08
2018-07-17T18:28:54.776Z,2.22
2018-07-17T18:31:24.203Z,2.65
2018-07-17T18:33:53.788Z,2.30
2018-07-17T18:36:23.858Z,2.12
2018-07-17T18:38:53.623Z,2.75
2018-07-17T18:41:23.732Z,3.35
2018-07-17T18:43:53.515Z,1.77
2018-07-17T18:46:23.631Z,2.20
2018-07-17T18:48:53.065Z,1.90
2018-07-17T18:51:23.054Z,1.92
2018-07-17T18:53:53.176Z,2.10
2018-07-17T18:56:22.567Z,2.33
2018-07-17T18:58:52.085Z,2.30
2018-07-17T19:01:22.167Z,2.33
2018-07-17T19:03:52.149Z,2.40
2018-07-17T19:06:21.917Z,2.13
2018-07-17T19:08:51.314Z,2.00
2018-07-17T19:11:21.201Z,2.40
2018-07-17T19:13:50.615Z,2.63
2018-07-17T19:16:20.478Z,2.07
2018-07-17T19:18:49.933Z,1.93
2018-07-17T19:21:19.175Z,3.10
2018-07-17T19:23:49.033Z,2.90
2018-07-17T19:26:18.589Z,4.03
2018-07-17T19:28:48.269Z,3.00
2018-07-17T19:31:17.831Z,3.47
2018-07-17T19:33:47.386Z,2.37
2018-07-17T19:36:17.093Z,4.93
2018-07-17T19:38:46.918Z,3.33
2018-07-17T19:41:16.740Z,3.00
2018-07-17T19:43:46.433Z,2.03
2018-07-17T19:46:16.599Z,2.07
2018-07-17T19:48:46.000Z,3.00
2018-07-17T19:51:15.675Z,2.27
2018-07-17T19:53:45.365Z,2.10
2018-07-17T19:56:15.379Z,2.73
2018-07-17T19:58:45.715Z,2.40
2018-07-17T20:01:16.391Z,2.13
2018-07-17T20:03:46.534Z,2.50
2018-07-17T20:06:16.904Z,2.10
2018-07-17T20:08:48.775Z,2.80
2018-07-17T20:11:19.108Z,2.40
2018-07-17T20:13:49.482Z,3.90
2018-07-17T20:16:19.677Z,3.70
2018-07-17T20:18:49.906Z,1.83
2018-07-17T20:21:20.111Z,1.90
2018-07-17T20:23:50.628Z,1.53
2018-07-17T20:26:20.984Z,2.00
2018-07-17T20:28:51.327Z,1.93
2018-07-17T20:31:22.002Z,1.87
2018-07-17T20:33:52.263Z,1.80
2018-07-17T20:36:21.600Z,2.50
2018-07-17T20:38:50.672Z,1.87
2018-07-17T20:41:20.021Z,2.30
2018-07-17T20:43:49.182Z,2.70
2018-07-17T20:46:18.555Z,1.40
2018-07-17T20:48:47.785Z,1.50
2018-07-17T20:51:17.169Z,2.20
2018-07-17T20:53:46.412Z,1.80
2018-07-17T20:56:15.675Z,1.90
2018-07-17T20:58:44.909Z,1.53
2018-07-17T21:01:14.200Z,1.70
2018-07-17T21:03:43.129Z,1.97
2018-07-17T21:06:12.145Z,2.17
2018-07-17T21:08:41.533Z,2.07
2018-07-17T21:11:10.810Z,1.90
2018-07-17T21:13:39.894Z,2.40
2018-07-17T21:16:09.099Z,1.90
2018-07-17T21:18:38.586Z,1.80
2018-07-17T21:21:07.772Z,1.50
2018-07-17T21:23:37.128Z,1.97
2018-07-17T21:26:06.259Z,2.33
2018-07-17T21:28:35.451Z,2.20
2018-07-17T21:31:04.599Z,2.13
2018-07-17T21:33:33.734Z,2.87
2018-07-17T21:36:03.082Z,2.23
2018-07-17T21:38:32.185Z,2.07
2018-07-17T21:41:01.108Z,1.20
2018-07-17T21:43:30.114Z,2.00
2018-07-17T21:45:59.295Z,2.00
2018-07-17T21:48:28.197Z,2.10
2018-07-17T21:50:57.362Z,1.80
2018-07-17T21:53:26.878Z,2.53
2018-07-17T21:55:56.044Z,1.90
2018-07-17T21:58:25.466Z,1.70
2018-07-17T22:00:54.760Z,2.03
2018-07-17T22:03:24.295Z,1.80
2018-07-17T22:05:53.591Z,2.33
2018-07-17T22:08:22.881Z,1.90
2018-07-17T22:10:52.030Z,2.27
2018-07-17T22:13:21.203Z,1.90
2018-07-17T22:15:51.125Z,2.20
2018-07-17T22:18:20.230Z,1.87
2018-07-17T22:20:49.661Z,2.00
2018-07-17T22:23:18.517Z,1.83
2018-07-17T22:25:47.650Z,1.80
2018-07-17T22:28:16.789Z,1.77
2018-07-17T22:30:46.011Z,2.60
2018-07-17T22:33:15.371Z,1.83
2018-07-17T22:35:44.451Z,1.93
2018-07-17T22:38:13.844Z,1.63
2018-07-17T22:40:42.933Z,1.63
2018-07-17T22:43:12.205Z,2.00
2018-07-17T22:45:41.374Z,1.77
2018-07-17T22:48:10.594Z,1.70
2018-07-17T22:50:39.803Z,2.07
2018-07-17T22:53:09.024Z,1.70
2018-07-17T22:55:38.232Z,1.73
2018-07-17T22:58:07.596Z,1.70
2018-07-17T23:00:36.657Z,1.80
2018-07-17T23:03:05.886Z,1.70
2018-07-17T23:05:35.122Z,1.40
2018-07-17T23:08:04.776Z,2.43
2018-07-17T23:10:34.031Z,2.00
2018-07-17T23:13:03.314Z,2.00
2018-07-17T23:15:32.689Z,1.60
2018-07-17T23:18:01.522Z,1.93
2018-07-17T23:20:30.320Z,2.10
2018-07-17T23:23:00.302Z,1.60
2018-07-17T23:25:31.793Z,1.90
2018-07-17T23:28:01.114Z,2.00
2018-07-17T23:30:30.136Z,1.90
2018-07-17T23:32:58.727Z,1.80
2018-07-17T23:35:27.920Z,1.47
2018-07-17T23:37:57.129Z,1.80
2018-07-17T23:40:26.521Z,1.87
2018-07-17T23:42:55.887Z,2.20
2018-07-17T23:45:25.204Z,2.10
2018-07-17T23:47:54.411Z,1.90
2018-07-17T23:50:23.564Z,1.80
2018-07-17T23:52:52.931Z,2.00
2018-07-17T23:55:21.731Z,2.73
2018-07-17T23:57:50.775Z,2.43
